createdAt,value
2019-01-19T00:00:30.836Z,77.21
2019-01-19T00:01:30.839Z,77.17
2019-01-19T00:03:20.252Z,77.73
2019-01-19T00:04:20.242Z,77.73
2019-01-19T00:05:20.265Z,78.36
2019-01-19T00:06:20.218Z,78.36
2019-01-19T00:07:20.214Z,78.57
2019-01-19T00:08:20.258Z,77.73
2019-01-19T00:09:20.275Z,78.05
2019-01-19T00:10:20.181Z,77.94
2019-01-19T00:11:20.197Z,77.94
2019-01-19T00:12:20.171Z,77.84
2019-01-19T00:13:20.166Z,77.94
2019-01-19T00:14:20.142Z,78.05
2019-01-19T00:15:20.135Z,77.94
2019-01-19T00:16:20.114Z,77.73
2019-01-19T00:17:20.129Z,78.05
2019-01-19T00:18:20.111Z,77.31
2019-01-19T00:19:20.149Z,77.73
2019-01-19T00:20:20.078Z,77.84
2019-01-19T00:21:20.070Z,78.19
2019-01-19T00:22:20.120Z,77.76
2019-01-19T00:23:20.142Z,78.40
2019-01-19T00:24:20.036Z,78.61
2019-01-19T00:25:20.040Z,77.98
2019-01-19T00:26:20.082Z,77.45
2019-01-19T00:27:20.013Z,77.98
2019-01-19T00:28:20.005Z,78.19
2019-01-19T00:29:19.995Z,77.76
2019-01-19T00:30:19.973Z,78.02
2019-01-19T00:31:20.032Z,78.02
2019-01-19T00:32:19.964Z,78.33
2019-01-19T00:33:19.952Z,77.91
2019-01-19T00:34:19.937Z,78.02
2019-01-19T00:35:19.952Z,78.54
2019-01-19T00:36:19.933Z,78.64
2019-01-19T00:37:19.898Z,78.54
2019-01-19T00:38:19.889Z,78.50
2019-01-19T00:39:19.940Z,78.02
2019-01-19T00:40:19.866Z,77.98
2019-01-19T00:41:19.880Z,77.66
2019-01-19T00:42:19.848Z,77.98
2019-01-19T00:43:19.852Z,78.02
2019-01-19T00:44:19.826Z,78.12
2019-01-19T00:45:19.816Z,78.29
2019-01-19T00:46:19.806Z,77.98
2019-01-19T00:47:19.816Z,78.02
2019-01-19T00:48:19.835Z,78.02
2019-01-19T00:49:19.796Z,77.80
2019-01-19T00:50:19.773Z,78.12
2019-01-19T00:51:19.751Z,77.28
2019-01-19T00:52:19.744Z,77.24
2019-01-19T00:53:19.757Z,77.07
2019-01-19T00:54:19.732Z,77.45
2019-01-19T00:55:19.751Z,78.19
2019-01-19T00:56:19.704Z,77.80
2019-01-19T00:57:19.684Z,77.66
2019-01-19T00:58:19.681Z,77.66
2019-01-19T00:59:19.754Z,78.12
2019-01-19T01:00:19.670Z,78.33
2019-01-19T01:01:19.645Z,77.80
2019-01-19T01:02:19.639Z,77.80
2019-01-19T01:03:19.626Z,77.80
2019-01-19T01:04:19.648Z,78.02
2019-01-19T01:05:25.245Z,77.91
2019-01-19T01:06:20.590Z,78.12
2019-01-19T01:07:19.584Z,76.96
2019-01-19T01:08:19.584Z,77.38
2019-01-19T01:09:19.562Z,77.17
2019-01-19T01:10:19.557Z,77.38
2019-01-19T01:11:19.553Z,77.91
2019-01-19T01:12:19.597Z,77.91
2019-01-19T01:13:19.516Z,78.29
2019-01-19T01:14:19.522Z,77.91
2019-01-19T01:15:19.503Z,77.87
2019-01-19T01:16:19.503Z,77.98
2019-01-19T01:17:19.503Z,78.02
2019-01-19T01:18:19.500Z,78.02
2019-01-19T01:19:19.455Z,77.91
2019-01-19T01:20:19.445Z,78.22
2019-01-19T01:21:19.430Z,78.22
2019-01-19T01:22:19.526Z,77.94
2019-01-19T01:23:19.433Z,77.70
2019-01-19T01:24:19.413Z,78.64
2019-01-19T01:25:19.391Z,78.47
2019-01-19T01:26:19.372Z,78.36
2019-01-19T01:27:19.375Z,78.68
2019-01-19T01:28:19.368Z,78.05
2019-01-19T01:29:19.401Z,78.47
2019-01-19T01:30:19.331Z,78.02
2019-01-19T01:31:19.324Z,77.38
2019-01-19T01:32:19.318Z,78.22
2019-01-19T01:33:19.352Z,77.91
2019-01-19T01:34:19.296Z,77.59
2019-01-19T01:35:19.306Z,77.59
2019-01-19T01:36:19.269Z,77.48
2019-01-19T01:37:19.344Z,76.96
2019-01-19T01:38:19.312Z,77.07
2019-01-19T01:39:19.241Z,76.96
2019-01-19T01:40:19.238Z,77.59
2019-01-19T01:41:19.232Z,77.59
2019-01-19T01:42:19.206Z,77.80
2019-01-19T01:43:19.199Z,76.86
2019-01-19T01:44:19.254Z,77.10
2019-01-19T01:45:19.177Z,78.26
2019-01-19T01:46:19.161Z,77.94
2019-01-19T01:47:19.170Z,78.58
2019-01-19T01:48:19.172Z,78.47
2019-01-19T01:49:19.145Z,78.61
2019-01-19T01:50:19.123Z,79.14
2019-01-19T01:51:19.119Z,79.35
2019-01-19T01:52:19.098Z,79.66
2019-01-19T01:53:19.113Z,79.77
2019-01-19T01:54:19.079Z,79.45
2019-01-19T01:55:19.071Z,79.45
2019-01-19T01:56:19.065Z,79.60
2019-01-19T01:57:19.047Z,79.35
2019-01-19T01:58:19.059Z,79.98
2019-01-19T01:59:19.034Z,80.29
2019-01-19T02:00:19.017Z,80.40
2019-01-19T02:01:19.001Z,80.51
2019-01-19T02:02:19.001Z,80.86
2019-01-19T02:03:18.982Z,80.40
2019-01-19T02:04:18.974Z,80.40
2019-01-19T02:05:18.969Z,80.71
2019-01-19T02:06:18.947Z,80.65
2019-01-19T02:07:18.940Z,79.66
2019-01-19T02:08:18.931Z,79.03
2019-01-19T02:09:18.937Z,79.03
2019-01-19T02:10:18.911Z,79.14
2019-01-19T02:11:18.912Z,78.78
2019-01-19T02:12:18.889Z,78.72
2019-01-19T02:13:18.873Z,78.50
2019-01-19T02:14:18.931Z,78.72
2019-01-19T02:15:18.858Z,78.82
2019-01-19T02:16:18.844Z,78.72
2019-01-19T02:17:18.854Z,78.92
2019-01-19T02:18:18.822Z,79.24
2019-01-19T02:19:18.811Z,78.50
2019-01-19T02:20:18.803Z,78.61
2019-01-19T02:21:18.803Z,78.72
2019-01-19T02:22:18.791Z,78.40
2019-01-19T02:23:18.886Z,78.40
2019-01-19T02:24:18.755Z,78.86
2019-01-19T02:25:18.747Z,79.24
2019-01-19T02:26:18.756Z,79.38
2019-01-19T02:27:18.724Z,79.06
2019-01-19T02:28:18.714Z,79.35
2019-01-19T02:29:18.724Z,79.38
2019-01-19T02:30:18.714Z,78.92
2019-01-19T02:31:18.683Z,78.72
2019-01-19T02:32:18.676Z,78.82
2019-01-19T02:33:18.663Z,79.03
2019-01-19T02:34:18.677Z,79.60
2019-01-19T02:35:18.663Z,79.60
2019-01-19T02:36:18.634Z,79.70
2019-01-19T02:37:18.619Z,80.75
2019-01-19T02:38:18.605Z,80.44
2019-01-19T02:39:18.599Z,80.22
2019-01-19T02:40:18.627Z,80.44
2019-01-19T02:41:18.593Z,80.22
2019-01-19T02:42:18.564Z,80.33
2019-01-19T02:43:18.554Z,80.58
2019-01-19T02:44:18.567Z,80.36
2019-01-19T02:45:18.542Z,80.47
2019-01-19T02:46:18.533Z,80.47
2019-01-19T02:47:18.536Z,79.94
2019-01-19T02:48:18.497Z,79.49
2019-01-19T02:49:18.492Z,79.49
2019-01-19T02:50:18.478Z,79.70
2019-01-19T02:51:18.472Z,79.49
2019-01-19T02:52:18.475Z,79.28
2019-01-19T02:53:18.466Z,79.49
2019-01-19T02:54:18.446Z,79.06
2019-01-19T02:55:18.431Z,79.60
2019-01-19T02:56:18.419Z,79.17
2019-01-19T02:57:18.409Z,79.21
2019-01-19T02:58:18.405Z,79.06
2019-01-19T02:59:18.428Z,79.38
2019-01-19T03:00:18.376Z,79.17
2019-01-19T03:01:18.374Z,79.17
2019-01-19T03:02:18.358Z,79.17
2019-01-19T03:03:18.349Z,78.86
2019-01-19T03:04:18.344Z,78.96
2019-01-19T03:05:18.360Z,78.54
2019-01-19T03:06:18.317Z,79.24
2019-01-19T03:07:18.322Z,79.56
2019-01-19T03:08:18.306Z,78.72
2019-01-19T03:09:18.288Z,78.40
2019-01-19T03:10:18.272Z,78.50
2019-01-19T03:11:18.286Z,78.72
2019-01-19T03:12:18.257Z,78.12
2019-01-19T03:13:18.241Z,78.19
2019-01-19T03:14:18.232Z,78.22
2019-01-19T03:15:18.219Z,78.30
2019-01-19T03:16:18.211Z,77.91
2019-01-19T03:17:18.215Z,78.08
2019-01-19T03:18:18.195Z,77.87
2019-01-19T03:19:18.181Z,78.40
2019-01-19T03:20:18.171Z,78.30
2019-01-19T03:21:18.163Z,77.70
2019-01-19T03:22:19.527Z,78.54
2019-01-19T03:23:18.243Z,78.68
2019-01-19T03:24:18.127Z,78.64
2019-01-19T03:25:18.117Z,78.75
2019-01-19T03:26:18.101Z,78.47
2019-01-19T03:27:18.108Z,78.58
2019-01-19T03:28:18.089Z,78.78
2019-01-19T03:29:18.134Z,79.00
2019-01-19T03:30:18.078Z,79.21
2019-01-19T03:31:18.052Z,79.21
2019-01-19T03:32:18.083Z,79.21
2019-01-19T03:33:18.048Z,79.00
2019-01-19T03:34:18.021Z,79.52
2019-01-19T03:35:18.027Z,79.10
2019-01-19T03:36:18.005Z,79.63
2019-01-19T03:37:17.990Z,79.66
2019-01-19T03:38:17.983Z,79.84
2019-01-19T03:39:17.977Z,79.52
2019-01-19T03:40:17.958Z,80.16
2019-01-19T03:41:17.977Z,80.05
2019-01-19T03:42:17.934Z,79.52
2019-01-19T03:43:17.924Z,79.10
2019-01-19T03:44:17.926Z,79.10
2019-01-19T03:45:17.911Z,78.78
2019-01-19T03:46:17.895Z,79.00
2019-01-19T03:47:17.980Z,78.75
2019-01-19T03:48:17.873Z,79.28
2019-01-19T03:49:17.869Z,78.54
2019-01-19T03:50:17.861Z,78.64
2019-01-19T03:51:17.854Z,79.17
2019-01-19T03:52:17.832Z,79.38
2019-01-19T03:53:17.845Z,79.17
2019-01-19T03:54:17.812Z,78.33
2019-01-19T03:55:17.812Z,78.75
2019-01-19T03:56:17.796Z,77.80
2019-01-19T03:57:17.786Z,78.64
2019-01-19T03:58:17.769Z,77.80
2019-01-19T03:59:17.804Z,78.89
2019-01-19T04:00:17.759Z,78.68
2019-01-19T04:01:17.790Z,78.47
2019-01-19T04:02:17.737Z,78.78
2019-01-19T04:03:17.728Z,78.50
2019-01-19T04:04:17.712Z,79.32
2019-01-19T04:05:17.716Z,79.03
2019-01-19T04:06:17.693Z,79.56
2019-01-19T04:07:17.686Z,79.66
2019-01-19T04:08:17.695Z,79.56
2019-01-19T04:09:17.674Z,79.74
2019-01-19T04:10:17.653Z,79.10
2019-01-19T04:11:17.655Z,79.46
2019-01-19T04:12:17.625Z,79.66
2019-01-19T04:13:17.660Z,79.14
2019-01-19T04:14:17.611Z,79.46
2019-01-19T04:15:17.604Z,79.46
2019-01-19T04:16:17.582Z,79.10
2019-01-19T04:17:17.594Z,79.32
2019-01-19T04:18:17.564Z,79.24
2019-01-19T04:19:17.559Z,79.46
2019-01-19T04:20:17.544Z,79.03
2019-01-19T04:21:17.539Z,79.77
2019-01-19T04:22:17.522Z,80.40
2019-01-19T04:23:17.556Z,80.08
2019-01-19T04:24:17.505Z,79.66
2019-01-19T04:25:17.490Z,79.46
2019-01-19T04:26:17.488Z,78.78
2019-01-19T04:27:17.474Z,79.00
2019-01-19T04:28:17.462Z,78.89
2019-01-19T04:29:17.471Z,78.40
2019-01-19T04:30:17.450Z,79.35
2019-01-19T04:31:17.440Z,79.24
2019-01-19T04:32:17.423Z,79.66
2019-01-19T04:33:17.431Z,80.62
2019-01-19T04:34:17.395Z,80.62
2019-01-19T04:35:17.402Z,80.19
2019-01-19T04:36:21.714Z,79.56
2019-01-19T04:37:17.376Z,79.24
2019-01-19T04:38:17.362Z,79.03
2019-01-19T04:39:17.346Z,79.24
2019-01-19T04:40:17.350Z,79.46
2019-01-19T04:41:17.359Z,78.92
2019-01-19T04:42:17.346Z,79.17
2019-01-19T04:43:17.311Z,79.66
2019-01-19T04:44:17.295Z,79.14
2019-01-19T04:45:17.296Z,79.88
2019-01-19T04:46:17.280Z,79.56
2019-01-19T04:47:17.283Z,79.24
2019-01-19T04:48:17.260Z,79.46
2019-01-19T04:49:17.269Z,79.28
2019-01-19T04:50:17.237Z,78.92
2019-01-19T04:51:17.231Z,79.35
2019-01-19T04:52:17.218Z,79.24
2019-01-19T04:53:17.221Z,79.14
2019-01-19T04:54:17.216Z,79.03
2019-01-19T04:55:17.197Z,79.14
2019-01-19T04:56:17.174Z,79.77
2019-01-19T04:57:17.167Z,79.66
2019-01-19T04:58:17.146Z,79.10
2019-01-19T04:59:17.163Z,78.89
2019-01-19T05:00:17.934Z,78.92
2019-01-19T05:01:17.146Z,78.92
2019-01-19T05:02:17.117Z,78.82
2019-01-19T05:03:17.099Z,79.10
2019-01-19T05:04:17.085Z,78.58
2019-01-19T05:05:17.114Z,78.89
2019-01-19T05:06:17.069Z,79.21
2019-01-19T05:07:17.063Z,78.36
2019-01-19T05:08:17.047Z,78.05
2019-01-19T05:09:17.046Z,78.05
2019-01-19T05:10:17.029Z,77.73
2019-01-19T05:11:17.033Z,77.20
2019-01-19T05:12:17.015Z,78.05
2019-01-19T05:13:17.009Z,78.05
2019-01-19T05:14:16.990Z,78.16
2019-01-19T05:15:16.987Z,77.94
2019-01-19T05:16:16.973Z,77.31
2019-01-19T05:17:16.977Z,78.30
2019-01-19T05:18:16.945Z,78.61
2019-01-19T05:19:16.979Z,79.14
2019-01-19T05:20:16.933Z,78.26
2019-01-19T05:21:16.928Z,77.94
2019-01-19T05:22:16.904Z,78.50
2019-01-19T05:23:16.944Z,79.24
2019-01-19T05:24:16.923Z,79.00
2019-01-19T05:25:16.871Z,78.47
2019-01-19T05:26:16.862Z,78.05
2019-01-19T05:27:16.862Z,78.68
2019-01-19T05:28:16.846Z,79.46
2019-01-19T05:29:16.855Z,79.24
2019-01-19T05:30:16.822Z,79.46
2019-01-19T05:31:16.815Z,79.14
2019-01-19T05:32:16.801Z,79.03
2019-01-19T05:33:16.794Z,79.46
2019-01-19T05:34:16.820Z,78.82
2019-01-19T05:35:16.791Z,78.82
2019-01-19T05:36:16.766Z,78.68
2019-01-19T05:37:16.756Z,78.58
2019-01-19T05:38:16.742Z,78.47
2019-01-19T05:39:16.730Z,77.94
2019-01-19T05:40:16.774Z,78.26
2019-01-19T05:41:16.728Z,77.84
2019-01-19T05:42:16.695Z,78.08
2019-01-19T05:43:16.686Z,78.61
2019-01-19T05:44:16.676Z,79.46
2019-01-19T05:45:16.670Z,79.03
2019-01-19T05:46:21.407Z,79.46
2019-01-19T05:47:17.669Z,79.46
2019-01-19T05:48:16.636Z,79.66
2019-01-19T05:49:16.625Z,79.03
2019-01-19T05:50:16.618Z,79.46
2019-01-19T05:51:16.610Z,79.49
2019-01-19T05:52:16.591Z,79.66
2019-01-19T05:53:16.614Z,79.49
2019-01-19T05:54:16.583Z,79.70
2019-01-19T05:55:16.568Z,80.02
2019-01-19T05:56:16.554Z,80.65
2019-01-19T05:57:16.553Z,79.60
2019-01-19T05:58:16.539Z,78.86
2019-01-19T05:59:16.543Z,79.35
2019-01-19T06:00:16.538Z,78.96
2019-01-19T06:01:16.507Z,79.38
2019-01-19T06:02:16.491Z,79.49
2019-01-19T06:03:16.499Z,79.28
2019-01-19T06:04:16.486Z,80.54
2019-01-19T06:05:16.514Z,80.76
2019-01-19T06:06:16.448Z,79.70
2019-01-19T06:07:16.457Z,80.02
2019-01-19T06:08:16.459Z,80.86
2019-01-19T06:09:16.441Z,80.86
2019-01-19T06:10:16.405Z,79.28
2019-01-19T06:11:16.420Z,78.72
2019-01-19T06:12:16.421Z,79.35
2019-01-19T06:13:16.372Z,79.46
2019-01-19T06:14:16.369Z,79.49
2019-01-19T06:15:16.378Z,79.38
2019-01-19T06:16:16.359Z,78.86
2019-01-19T06:17:16.366Z,79.60
2019-01-19T06:18:16.326Z,79.49
2019-01-19T06:19:16.316Z,79.28
2019-01-19T06:20:16.322Z,78.96
2019-01-19T06:21:16.293Z,79.17
2019-01-19T06:22:16.284Z,79.80
2019-01-19T06:23:16.296Z,79.28
2019-01-19T06:24:16.299Z,79.38
2019-01-19T06:25:16.300Z,79.17
2019-01-19T06:26:16.247Z,79.28
2019-01-19T06:27:16.236Z,79.53
2019-01-19T06:28:16.220Z,79.49
2019-01-19T06:29:16.233Z,79.17
2019-01-19T06:30:16.204Z,79.28
2019-01-19T06:31:16.204Z,79.84
2019-01-19T06:32:16.188Z,79.21
2019-01-19T06:33:16.175Z,79.63
2019-01-19T06:34:16.156Z,79.95
2019-01-19T06:35:16.166Z,80.47
2019-01-19T06:36:16.142Z,80.69
2019-01-19T06:37:16.133Z,80.58
2019-01-19T06:38:16.126Z,80.58
2019-01-19T06:39:16.113Z,80.58
2019-01-19T06:40:16.151Z,80.58
2019-01-19T06:41:16.144Z,79.91
2019-01-19T06:42:16.081Z,79.63
2019-01-19T06:43:16.071Z,79.84
2019-01-19T06:44:16.060Z,79.60
2019-01-19T06:45:16.051Z,79.10
2019-01-19T06:46:16.038Z,79.74
2019-01-19T06:47:16.044Z,78.96
2019-01-19T06:48:16.025Z,78.44
2019-01-19T06:49:16.017Z,78.75
2019-01-19T06:50:15.997Z,79.07
2019-01-19T06:51:15.986Z,79.28
2019-01-19T06:53:13.129Z,79.28
2019-01-19T06:54:13.087Z,79.10
2019-01-19T06:55:13.081Z,80.27
2019-01-19T06:56:13.061Z,80.37
2019-01-19T06:57:13.061Z,80.47
2019-01-19T06:58:13.046Z,79.95
2019-01-19T06:59:17.399Z,79.74
2019-01-19T07:00:13.023Z,79.84
2019-01-19T07:01:13.011Z,79.42
2019-01-19T07:02:13.001Z,79.32
2019-01-19T07:03:12.997Z,80.05
2019-01-19T07:04:12.988Z,80.16
2019-01-19T07:05:12.991Z,80.58
2019-01-19T07:06:12.959Z,80.58
2019-01-19T07:07:12.956Z,79.95
2019-01-19T07:08:12.939Z,79.53
2019-01-19T07:09:12.936Z,79.84
2019-01-19T07:10:12.919Z,79.63
2019-01-19T07:11:12.930Z,79.84
2019-01-19T07:12:12.910Z,79.84
2019-01-19T07:13:12.885Z,80.16
2019-01-19T07:14:12.894Z,80.09
2019-01-19T07:15:12.871Z,80.62
2019-01-19T07:16:12.866Z,80.83
2019-01-19T07:17:12.862Z,80.73
2019-01-19T07:18:12.839Z,80.62
2019-01-19T07:19:12.830Z,80.76
2019-01-19T07:20:12.823Z,80.73
2019-01-19T07:21:12.811Z,80.62
2019-01-19T07:22:12.802Z,80.62
2019-01-19T07:23:12.824Z,80.73
2019-01-19T07:24:12.782Z,80.73
2019-01-19T07:25:12.769Z,80.51
2019-01-19T07:26:12.766Z,80.79
2019-01-19T07:27:12.753Z,80.93
2019-01-19T07:28:12.746Z,80.93
2019-01-19T07:29:12.769Z,79.99
2019-01-19T07:30:12.727Z,79.88
2019-01-19T07:31:12.714Z,81.04
2019-01-19T07:32:12.701Z,80.62
2019-01-19T07:33:12.692Z,80.73
2019-01-19T07:34:12.689Z,80.62
2019-01-19T07:35:12.712Z,80.51
2019-01-19T07:36:12.688Z,80.62
2019-01-19T07:37:12.647Z,80.83
2019-01-19T07:38:12.640Z,80.93
2019-01-19T07:39:12.638Z,80.93
2019-01-19T07:40:12.663Z,80.73
2019-01-19T07:41:12.631Z,80.93
2019-01-19T07:42:12.602Z,80.69
2019-01-19T07:43:12.580Z,79.77
2019-01-19T07:44:12.580Z,79.84
2019-01-19T07:45:12.567Z,79.74
2019-01-19T07:46:12.561Z,79.53
2019-01-19T07:47:12.599Z,79.10
2019-01-19T07:48:12.541Z,78.96
2019-01-19T07:49:12.525Z,78.54
2019-01-19T07:50:12.514Z,77.77
2019-01-19T07:51:12.503Z,76.96
2019-01-19T07:52:12.503Z,74.93
2019-01-19T07:53:12.512Z,75.07
2019-01-19T07:54:12.474Z,75.84
2019-01-19T07:55:12.467Z,76.26
2019-01-19T07:56:12.454Z,77.03
2019-01-19T07:57:12.453Z,77.48
2019-01-19T07:58:12.445Z,78.40
2019-01-19T07:59:12.458Z,78.30
2019-01-19T08:00:12.432Z,77.52
2019-01-19T08:01:12.400Z,76.86
2019-01-19T08:02:12.394Z,75.56
2019-01-19T08:03:12.403Z,73.99
2019-01-19T08:04:12.375Z,70.84
2019-01-19T08:05:12.378Z,69.55
2019-01-19T08:06:12.355Z,68.05
2019-01-19T08:07:17.195Z,68.74
2019-01-19T08:08:13.333Z,69.43
2019-01-19T08:09:12.344Z,71.39
2019-01-19T08:10:12.308Z,72.75
2019-01-19T08:11:12.419Z,73.07
2019-01-19T08:12:12.296Z,73.32
2019-01-19T08:13:12.277Z,70.53
2019-01-19T08:14:12.271Z,69.16
2019-01-19T08:15:12.266Z,70.06
2019-01-19T08:16:12.267Z,71.25
2019-01-19T08:17:12.258Z,73.14
2019-01-19T08:18:12.226Z,71.88
2019-01-19T08:19:12.245Z,71.78
2019-01-19T08:20:12.204Z,71.60
2019-01-19T08:21:12.201Z,73.84
2019-01-19T08:22:12.184Z,74.08
2019-01-19T08:23:12.194Z,75.24
2019-01-19T08:24:12.177Z,74.51
2019-01-19T08:25:12.158Z,74.79
2019-01-19T08:26:12.143Z,72.83
2019-01-19T08:27:12.137Z,71.88
2019-01-19T08:28:12.121Z,72.33
2019-01-19T08:29:12.124Z,73.63
2019-01-19T08:30:12.098Z,74.71
2019-01-19T08:31:12.108Z,75.24
2019-01-19T08:32:12.079Z,74.79
2019-01-19T08:33:12.345Z,75.52
2019-01-19T08:34:12.062Z,75.21
2019-01-19T08:35:12.060Z,75.84
2019-01-19T08:36:12.037Z,76.37
2019-01-19T08:37:12.220Z,74.79
2019-01-19T08:38:12.573Z,74.05
2019-01-19T08:39:12.005Z,74.26
2019-01-19T08:40:12.006Z,72.41
2019-01-19T08:41:12.023Z,69.07
2019-01-19T08:42:11.977Z,63.28
2019-01-19T08:43:11.981Z,60.20
2019-01-19T08:44:11.996Z,59.49
2019-01-19T08:45:11.942Z,56.54
2019-01-19T08:46:11.932Z,57.12
2019-01-19T08:47:11.942Z,57.32
2019-01-19T08:48:11.909Z,57.79
2019-01-19T08:49:11.924Z,58.68
2019-01-19T08:50:11.903Z,55.48
2019-01-19T08:51:11.878Z,54.99
2019-01-19T08:52:11.877Z,52.13
2019-01-19T08:53:11.884Z,49.39
2019-01-19T08:54:11.849Z,49.13
2019-01-19T08:55:11.858Z,48.80
2019-01-19T08:56:11.876Z,49.05
2019-01-19T08:57:11.819Z,49.86
2019-01-19T08:58:11.842Z,48.47
2019-01-19T08:59:11.816Z,48.08
2019-01-19T09:00:11.817Z,47.74
2019-01-19T09:01:11.786Z,47.20
2019-01-19T09:02:11.794Z,46.54
2019-01-19T09:03:11.763Z,44.76
2019-01-19T09:04:11.749Z,46.11
2019-01-19T09:05:11.759Z,44.68
2019-01-19T09:06:11.724Z,46.15
2019-01-19T09:07:11.724Z,44.99
2019-01-19T09:08:11.705Z,46.66
2019-01-19T09:09:11.692Z,46.23
2019-01-19T09:10:11.679Z,45.42
2019-01-19T09:11:11.692Z,46.56
2019-01-19T09:12:11.657Z,46.69
2019-01-19T09:13:11.670Z,46.15
2019-01-19T09:14:11.660Z,45.07
2019-01-19T09:15:11.628Z,46.75
2019-01-19T09:16:11.613Z,45.17
2019-01-19T09:17:11.993Z,44.62
2019-01-19T09:18:11.662Z,43.87
2019-01-19T09:19:11.593Z,44.08
2019-01-19T09:20:11.678Z,45.03
2019-01-19T09:21:11.686Z,44.57
2019-01-19T09:22:11.626Z,43.40
2019-01-19T09:23:11.654Z,43.81
2019-01-19T09:24:11.534Z,42.69
2019-01-19T09:25:11.533Z,43.42
2019-01-19T09:26:11.514Z,43.52
2019-01-19T09:27:11.507Z,42.30
2019-01-19T09:28:11.491Z,43.96
2019-01-19T09:29:11.520Z,42.97
2019-01-19T09:30:11.485Z,42.76
2019-01-19T09:31:11.472Z,42.35
2019-01-19T09:32:11.499Z,42.35
2019-01-19T09:33:11.447Z,42.33
2019-01-19T09:34:11.428Z,41.43
2019-01-19T09:35:11.437Z,39.89
2019-01-19T09:36:11.415Z,38.28
2019-01-19T09:37:11.399Z,39.89
2019-01-19T09:38:11.424Z,41.63
2019-01-19T09:39:11.379Z,42.00
2019-01-19T09:40:11.360Z,40.83
2019-01-19T09:41:11.366Z,39.46
2019-01-19T09:42:11.343Z,37.57
2019-01-19T09:43:11.345Z,37.84
2019-01-19T09:44:11.326Z,36.70
2019-01-19T09:45:11.316Z,36.49
2019-01-19T09:46:11.301Z,35.86
2019-01-19T09:47:11.306Z,36.04
2019-01-19T09:48:11.295Z,33.85
2019-01-19T09:49:11.307Z,34.25
2019-01-19T09:50:11.254Z,33.33
2019-01-19T09:51:11.246Z,32.99
2019-01-19T09:52:11.236Z,32.77
2019-01-19T09:53:11.282Z,32.94
2019-01-19T09:54:11.321Z,31.82
2019-01-19T09:55:11.211Z,31.03
2019-01-19T09:56:11.192Z,30.94
2019-01-19T09:57:11.182Z,31.85
2019-01-19T09:58:11.169Z,31.41
2019-01-19T09:59:11.172Z,31.51
2019-01-19T10:00:11.147Z,31.92
2019-01-19T10:01:11.140Z,30.80
2019-01-19T10:02:11.126Z,31.62
2019-01-19T10:03:11.121Z,31.60
2019-01-19T10:04:11.107Z,30.49
2019-01-19T10:05:11.107Z,31.22
2019-01-19T10:06:11.100Z,31.74
2019-01-19T10:07:11.077Z,31.43
2019-01-19T10:08:11.064Z,31.65
2019-01-19T10:09:11.050Z,31.62
2019-01-19T10:10:11.053Z,31.20
2019-01-19T10:11:11.047Z,32.97
2019-01-19T10:12:11.021Z,31.95
2019-01-19T10:13:11.005Z,31.95
2019-01-19T10:14:10.998Z,31.82
2019-01-19T10:15:10.988Z,30.57
2019-01-19T10:16:10.979Z,30.23
2019-01-19T10:17:10.982Z,30.91
2019-01-19T10:18:10.953Z,29.48
2019-01-19T10:19:10.942Z,29.06
2019-01-19T10:20:10.929Z,29.13
2019-01-19T10:21:10.916Z,27.10
2019-01-19T10:22:10.963Z,29.44
2019-01-19T10:23:10.933Z,29.24
2019-01-19T10:24:10.895Z,28.73
2019-01-19T10:25:10.881Z,29.45
2019-01-19T10:26:10.866Z,30.19
2019-01-19T10:27:10.865Z,29.50
2019-01-19T10:28:10.845Z,30.77
2019-01-19T10:29:10.852Z,31.82
2019-01-19T10:30:10.827Z,32.50
2019-01-19T10:31:10.814Z,33.97
2019-01-19T10:32:10.805Z,35.04
2019-01-19T10:33:10.791Z,36.41
2019-01-19T10:34:10.778Z,37.37
2019-01-19T10:35:10.804Z,39.46
2019-01-19T10:36:10.763Z,39.58
2019-01-19T10:37:10.750Z,40.83
2019-01-19T10:38:10.746Z,42.40
2019-01-19T10:39:10.730Z,41.49
2019-01-19T10:40:10.717Z,41.73
2019-01-19T10:41:10.720Z,43.38
2019-01-19T10:42:10.699Z,43.69
2019-01-19T10:43:10.681Z,45.48
2019-01-19T10:44:10.684Z,44.64
2019-01-19T10:45:10.671Z,43.63
2019-01-19T10:46:10.662Z,45.28
2019-01-19T10:47:10.652Z,44.96
2019-01-19T10:48:10.634Z,46.43
2019-01-19T10:49:10.621Z,46.12
2019-01-19T10:50:10.614Z,44.89
2019-01-19T10:51:10.601Z,44.89
2019-01-19T10:52:10.590Z,46.23
2019-01-19T10:53:10.598Z,46.84
2019-01-19T10:54:10.576Z,47.46
2019-01-19T10:55:10.558Z,47.80
2019-01-19T10:56:10.546Z,47.56
2019-01-19T10:57:10.540Z,48.31
2019-01-19T10:58:10.540Z,48.00
2019-01-19T10:59:10.527Z,49.14
2019-01-19T11:00:10.514Z,49.05
2019-01-19T11:01:10.505Z,49.16
2019-01-19T11:02:10.495Z,48.95
2019-01-19T11:03:10.484Z,49.60
2019-01-19T11:04:10.466Z,50.09
2019-01-19T11:05:10.477Z,48.97
2019-01-19T11:06:10.447Z,47.34
2019-01-19T11:07:10.435Z,48.53
2019-01-19T11:08:10.425Z,49.38
2019-01-19T11:09:10.634Z,48.96
2019-01-19T11:10:10.402Z,49.09
2019-01-19T11:11:10.407Z,49.01
2019-01-19T11:12:10.414Z,50.23
2019-01-19T11:13:10.373Z,50.35
2019-01-19T11:14:10.354Z,50.56
2019-01-19T11:15:10.338Z,50.56
2019-01-19T11:16:10.335Z,51.60
2019-01-19T11:17:10.338Z,52.82
2019-01-19T11:18:10.308Z,50.85
2019-01-19T11:19:10.302Z,50.31
2019-01-19T11:20:10.297Z,50.12
2019-01-19T11:21:10.283Z,50.23
2019-01-19T11:22:10.278Z,51.16
2019-01-19T11:23:10.290Z,53.03
2019-01-19T11:24:10.247Z,51.76
2019-01-19T11:25:10.240Z,52.90
2019-01-19T11:26:10.225Z,52.69
2019-01-19T11:27:10.215Z,53.83
2019-01-19T11:28:10.283Z,52.15
2019-01-19T11:29:10.203Z,52.46
2019-01-19T11:30:10.181Z,55.25
2019-01-19T11:31:10.168Z,54.01
2019-01-19T11:32:10.155Z,54.84
2019-01-19T11:33:10.166Z,54.01
2019-01-19T11:34:10.135Z,53.49
2019-01-19T11:35:10.264Z,55.15
2019-01-19T11:36:10.132Z,55.05
2019-01-19T11:37:10.104Z,54.84
2019-01-19T11:38:12.133Z,51.73
2019-01-19T11:39:10.087Z,51.94
2019-01-19T11:40:10.075Z,52.04
2019-01-19T11:41:10.098Z,51.94
2019-01-19T11:42:10.091Z,50.99
2019-01-19T11:43:10.036Z,53.67
2019-01-19T11:44:10.030Z,54.01
2019-01-19T11:45:10.025Z,51.94
2019-01-19T11:46:10.008Z,52.77
2019-01-19T11:47:10.011Z,51.73
2019-01-19T11:48:09.982Z,51.45
2019-01-19T11:49:09.972Z,51.84
2019-01-19T11:50:09.962Z,53.96
2019-01-19T11:51:09.953Z,52.20
2019-01-19T11:52:09.943Z,52.95
2019-01-19T11:53:09.950Z,54.99
2019-01-19T11:54:09.916Z,55.20
2019-01-19T11:55:09.904Z,52.80
2019-01-19T11:56:12.222Z,52.46
2019-01-19T11:57:09.917Z,50.34
2019-01-19T11:58:09.878Z,48.95
2019-01-19T11:59:09.887Z,48.08
2019-01-19T12:00:09.846Z,45.36
2019-01-19T12:01:09.843Z,43.90
2019-01-19T12:02:09.895Z,43.44
2019-01-19T12:03:09.820Z,44.89
2019-01-19T12:04:09.804Z,44.68
2019-01-19T12:05:09.903Z,48.02
2019-01-19T12:06:09.785Z,50.95
2019-01-19T12:07:09.779Z,50.38
2019-01-19T12:08:09.830Z,50.99
2019-01-19T12:09:09.750Z,50.84
2019-01-19T12:10:09.746Z,50.32
2019-01-19T12:11:09.747Z,49.74
2019-01-19T12:12:09.725Z,51.63
2019-01-19T12:13:09.739Z,50.51
2019-01-19T12:14:09.699Z,51.86
2019-01-19T12:15:09.693Z,53.72
2019-01-19T12:16:09.682Z,53.83
2019-01-19T12:17:09.817Z,54.55
2019-01-19T12:18:10.934Z,51.45
2019-01-19T12:19:09.725Z,51.55
2019-01-19T12:20:09.635Z,50.51
2019-01-19T12:21:09.625Z,53.83
2019-01-19T12:22:09.613Z,54.74
2019-01-19T12:23:09.740Z,54.99
2019-01-19T12:24:09.594Z,54.12
2019-01-19T12:25:09.581Z,53.66
2019-01-19T12:26:09.629Z,51.26
2019-01-19T12:27:09.558Z,48.88
2019-01-19T12:28:09.560Z,48.97
2019-01-19T12:29:09.559Z,48.12
2019-01-19T12:30:09.533Z,47.35
2019-01-19T12:31:09.523Z,46.08
2019-01-19T12:32:09.507Z,44.51
2019-01-19T12:33:09.501Z,43.67
2019-01-19T12:34:09.488Z,43.34
2019-01-19T12:35:09.496Z,44.39
2019-01-19T12:36:09.469Z,43.44
2019-01-19T12:37:09.446Z,43.75
2019-01-19T12:38:09.453Z,42.40
2019-01-19T12:39:09.765Z,41.68
2019-01-19T12:40:09.488Z,41.56
2019-01-19T12:41:09.421Z,41.88
2019-01-19T12:42:09.398Z,41.78
2019-01-19T12:43:09.395Z,42.62
2019-01-19T12:44:10.417Z,43.44
2019-01-19T12:45:10.357Z,43.67
2019-01-19T12:46:09.689Z,43.69
2019-01-19T12:47:10.356Z,44.84
2019-01-19T12:48:09.750Z,44.96
2019-01-19T12:49:09.347Z,44.14
2019-01-19T12:50:09.309Z,44.12
2019-01-19T12:51:09.303Z,43.51
2019-01-19T12:52:09.297Z,43.71
2019-01-19T12:53:09.309Z,43.51
2019-01-19T12:54:09.271Z,43.71